createdAt,value
2018-07-20T00:00:16.882Z,0.00
2018-07-20T00:01:16.972Z,0.00
2018-07-20T00:02:17.059Z,0.00
2018-07-20T00:03:17.155Z,0.00
2018-07-20T00:04:17.249Z,0.00
2018-07-20T00:05:17.369Z,0.00
2018-07-20T00:06:17.461Z,0.00
2018-07-20T00:07:17.576Z,0.00
2018-07-20T00:08:17.673Z,0.00
2018-07-20T00:09:17.779Z,0.00
2018-07-20T00:10:17.876Z,0.00
2018-07-20T00:11:17.981Z,0.00
2018-07-20T00:12:18.084Z,0.00
2018-07-20T00:13:18.187Z,0.00
2018-07-20T00:14:18.284Z,0.00
2018-07-20T00:15:18.374Z,0.00
2018-07-20T00:16:18.471Z,0.00
2018-07-20T00:17:18.573Z,0.00
2018-07-20T00:18:18.663Z,0.00
2018-07-20T00:19:18.755Z,0.00
2018-07-20T00:20:18.860Z,0.00
2018-07-20T00:21:18.939Z,0.00
2018-07-20T00:22:19.064Z,0.00
2018-07-20T00:23:19.156Z,0.00
2018-07-20T00:24:19.260Z,0.00
2018-07-20T00:26:52.399Z,0.00
2018-07-20T00:27:52.494Z,0.00
2018-07-20T00:28:52.587Z,0.00
2018-07-20T00:29:52.687Z,0.00
2018-07-20T00:30:52.791Z,0.00
2018-07-20T00:31:52.877Z,0.00
2018-07-20T00:32:52.970Z,0.00
2018-07-20T00:33:53.079Z,0.00
2018-07-20T00:34:53.177Z,0.00
2018-07-20T00:35:53.306Z,0.00
2018-07-20T00:36:53.388Z,0.00
2018-07-20T00:37:53.492Z,0.00
2018-07-20T00:38:53.592Z,0.00
2018-07-20T00:39:53.681Z,0.00
2018-07-20T00:40:53.783Z,0.00
2018-07-20T00:41:53.893Z,0.00
2018-07-20T00:42:53.998Z,0.00
2018-07-20T00:43:54.112Z,0.00
2018-07-20T00:44:54.225Z,0.00
2018-07-20T00:45:54.321Z,0.00
2018-07-20T00:46:54.421Z,0.00
2018-07-20T00:47:54.511Z,0.00
2018-07-20T00:48:54.608Z,0.00
2018-07-20T00:49:54.704Z,0.00
2018-07-20T00:50:54.795Z,0.00
2018-07-20T00:51:54.888Z,0.00
2018-07-20T00:52:54.994Z,0.00
2018-07-20T00:53:55.102Z,0.00
2018-07-20T00:54:55.254Z,0.00
2018-07-20T00:55:55.345Z,0.00
2018-07-20T00:56:55.456Z,0.00
2018-07-20T00:57:55.547Z,0.00
2018-07-20T00:58:55.666Z,0.00
2018-07-20T00:59:55.760Z,0.00
2018-07-20T01:00:55.850Z,0.00
2018-07-20T01:01:55.941Z,0.00
2018-07-20T01:02:56.027Z,0.00
2018-07-20T01:03:56.136Z,0.00
2018-07-20T01:04:56.216Z,0.00
2018-07-20T01:05:56.317Z,0.00
2018-07-20T01:06:56.414Z,0.00
2018-07-20T01:07:56.502Z,0.00
2018-07-20T01:08:56.617Z,0.00
2018-07-20T01:09:56.705Z,0.00
2018-07-20T01:10:56.794Z,0.00
2018-07-20T01:11:56.887Z,0.00
2018-07-20T01:12:56.992Z,0.00
2018-07-20T01:13:57.090Z,0.00
2018-07-20T01:14:57.178Z,0.00
2018-07-20T01:15:57.299Z,0.00
2018-07-20T01:16:57.467Z,0.00
2018-07-20T01:17:57.498Z,0.00
2018-07-20T01:18:57.596Z,0.00
2018-07-20T01:19:57.694Z,0.00
2018-07-20T01:20:57.777Z,0.00
2018-07-20T01:21:57.886Z,0.00
2018-07-20T01:22:57.970Z,0.00
2018-07-20T01:23:58.068Z,0.00
2018-07-20T01:24:58.170Z,0.00
2018-07-20T01:25:58.266Z,0.00
2018-07-20T01:26:58.363Z,0.00
2018-07-20T01:27:58.457Z,0.00
2018-07-20T01:28:58.553Z,0.00
2018-07-20T01:29:58.647Z,0.00
2018-07-20T01:30:58.741Z,0.00
2018-07-20T01:31:58.839Z,0.00
2018-07-20T01:32:58.943Z,0.00
2018-07-20T01:33:59.043Z,0.00
2018-07-20T01:34:59.136Z,0.00
2018-07-20T01:35:59.226Z,0.00
2018-07-20T01:36:59.327Z,0.00
2018-07-20T01:37:59.432Z,0.00
2018-07-20T01:38:59.520Z,0.00
2018-07-20T01:39:59.613Z,0.00
2018-07-20T01:40:59.716Z,0.00
2018-07-20T01:41:59.806Z,0.00
2018-07-20T01:42:59.891Z,0.00
2018-07-20T01:43:59.985Z,0.00
2018-07-20T01:45:00.084Z,0.00
2018-07-20T01:46:00.180Z,0.00
2018-07-20T01:47:00.276Z,0.00
2018-07-20T01:48:00.375Z,0.00
2018-07-20T01:49:00.485Z,0.00
2018-07-20T01:50:00.580Z,0.00
2018-07-20T01:51:00.678Z,0.00
2018-07-20T01:52:00.773Z,0.00
2018-07-20T01:53:00.870Z,0.00
2018-07-20T01:54:00.964Z,0.00
2018-07-20T01:55:01.063Z,0.00
2018-07-20T01:56:01.164Z,0.00
2018-07-20T01:57:01.255Z,0.00
2018-07-20T01:58:01.349Z,0.00
2018-07-20T01:59:01.448Z,0.00
2018-07-20T02:00:01.544Z,0.00
2018-07-20T02:01:01.639Z,0.00
2018-07-20T02:02:01.741Z,0.00
2018-07-20T02:03:01.830Z,0.00
2018-07-20T02:04:01.927Z,0.00
2018-07-20T02:05:02.027Z,0.00
2018-07-20T02:06:02.121Z,0.00
2018-07-20T02:07:02.218Z,0.00
2018-07-20T02:08:02.316Z,0.00
2018-07-20T02:09:02.417Z,0.00
2018-07-20T02:10:02.515Z,0.00
2018-07-20T02:11:02.606Z,0.00
2018-07-20T02:12:02.707Z,0.00
2018-07-20T02:13:02.809Z,0.00
2018-07-20T02:14:02.890Z,0.00
2018-07-20T02:15:02.987Z,0.00
2018-07-20T02:16:03.085Z,0.00
2018-07-20T02:17:03.179Z,0.00
2018-07-20T02:18:03.275Z,0.00
2018-07-20T02:19:03.416Z,0.00
2018-07-20T02:20:03.466Z,0.00
2018-07-20T02:21:03.563Z,0.00
2018-07-20T02:22:03.656Z,0.00
2018-07-20T02:23:03.756Z,0.00
2018-07-20T02:24:03.863Z,0.00
2018-07-20T02:25:03.948Z,0.00
2018-07-20T02:26:04.085Z,0.00
2018-07-20T02:27:04.138Z,0.00
2018-07-20T02:28:04.235Z,0.00
2018-07-20T02:29:04.334Z,0.00
2018-07-20T02:30:04.428Z,0.00
2018-07-20T02:31:04.522Z,0.00
2018-07-20T02:32:04.621Z,0.00
2018-07-20T02:33:04.722Z,0.00
2018-07-20T02:34:04.818Z,0.00
2018-07-20T02:35:04.908Z,0.00
2018-07-20T02:36:05.003Z,0.00
2018-07-20T02:37:05.105Z,0.00
2018-07-20T02:38:05.212Z,0.00
2018-07-20T02:39:05.297Z,0.00
2018-07-20T02:40:05.394Z,0.00
2018-07-20T02:41:05.491Z,0.00
2018-07-20T02:42:05.594Z,4.00
2018-07-20T02:43:05.687Z,4.00
2018-07-20T02:44:05.784Z,4.00
2018-07-20T02:45:05.884Z,4.00
2018-07-20T02:46:05.981Z,4.00
2018-07-20T02:47:06.074Z,4.00
2018-07-20T02:48:06.176Z,4.00
2018-07-20T02:49:06.287Z,0.00
2018-07-20T02:50:06.384Z,4.00
2018-07-20T02:51:06.479Z,4.00
2018-07-20T02:52:06.576Z,4.00
2018-07-20T02:53:06.672Z,4.00
2018-07-20T02:54:06.769Z,4.00
2018-07-20T02:55:06.869Z,4.00
2018-07-20T02:56:06.963Z,8.00
2018-07-20T02:57:07.059Z,8.00
2018-07-20T02:58:07.157Z,4.00
2018-07-20T02:59:07.254Z,8.00
2018-07-20T03:00:07.349Z,8.00
2018-07-20T03:01:07.451Z,8.00
2018-07-20T03:02:07.544Z,8.00
2018-07-20T03:03:07.638Z,12.00
2018-07-20T03:04:07.734Z,12.00
2018-07-20T03:05:07.834Z,16.00
2018-07-20T03:06:07.929Z,16.00
2018-07-20T03:07:08.039Z,16.00
2018-07-20T03:08:08.118Z,24.00
2018-07-20T03:09:08.312Z,20.00
2018-07-20T03:10:08.325Z,28.00
2018-07-20T03:11:08.422Z,28.00
2018-07-20T03:12:08.521Z,36.00
2018-07-20T03:13:08.617Z,36.00
2018-07-20T03:14:08.713Z,40.00
2018-07-20T03:15:08.811Z,44.00
2018-07-20T03:16:08.907Z,48.00
2018-07-20T03:17:09.007Z,60.00
2018-07-20T03:18:09.103Z,64.00
2018-07-20T03:19:09.198Z,76.00
2018-07-20T03:20:09.293Z,84.00
2018-07-20T03:21:09.441Z,92.00
2018-07-20T03:22:09.492Z,100.00
2018-07-20T03:23:09.585Z,112.00
2018-07-20T03:24:09.681Z,124.00
2018-07-20T03:25:09.775Z,132.00
2018-07-20T03:26:09.873Z,144.00
2018-07-20T03:27:09.969Z,156.00
2018-07-20T03:28:10.067Z,168.00
2018-07-20T03:29:10.166Z,184.00
2018-07-20T03:30:10.264Z,196.00
2018-07-20T03:31:10.364Z,208.00
2018-07-20T03:32:10.458Z,224.00
2018-07-20T03:33:10.553Z,240.00
2018-07-20T03:34:10.648Z,260.00
2018-07-20T03:35:10.752Z,276.00
2018-07-20T03:36:10.843Z,292.00
2018-07-20T03:37:10.940Z,312.00
2018-07-20T03:38:11.045Z,328.00
2018-07-20T03:39:11.142Z,352.00
2018-07-20T03:40:11.243Z,376.00
2018-07-20T03:41:11.336Z,396.00
2018-07-20T03:42:11.445Z,424.00
2018-07-20T03:43:11.531Z,452.00
2018-07-20T03:44:11.628Z,480.00
2018-07-20T03:45:11.725Z,512.00
2018-07-20T03:46:11.823Z,544.00
2018-07-20T03:47:11.921Z,576.00
2018-07-20T03:48:12.019Z,604.00
2018-07-20T03:49:12.117Z,636.00
2018-07-20T03:50:12.213Z,668.00
2018-07-20T03:51:12.307Z,700.00
2018-07-20T03:52:12.411Z,732.00
2018-07-20T03:53:12.498Z,768.00
2018-07-20T03:54:12.651Z,808.00
2018-07-20T03:55:12.712Z,836.00
2018-07-20T03:56:12.815Z,876.00
2018-07-20T03:57:12.911Z,912.00
2018-07-20T03:58:13.008Z,948.00
2018-07-20T03:59:13.106Z,984.00
2018-07-20T04:00:13.204Z,1024.00
2018-07-20T04:01:13.300Z,1064.00
2018-07-20T04:02:13.396Z,1100.00
2018-07-20T04:03:13.493Z,1140.00
2018-07-20T04:04:13.591Z,1184.00
2018-07-20T04:05:13.688Z,1224.00
2018-07-20T04:06:13.786Z,1268.00
2018-07-20T04:07:13.881Z,1308.00
2018-07-20T04:08:13.979Z,1352.00
2018-07-20T04:09:14.076Z,1388.00
2018-07-20T04:10:14.183Z,1432.00
2018-07-20T04:11:14.265Z,1468.00
2018-07-20T04:12:14.361Z,1508.00
2018-07-20T04:13:14.461Z,1548.00
2018-07-20T04:14:14.560Z,1596.00
2018-07-20T04:15:14.658Z,1644.00
2018-07-20T04:16:14.755Z,1664.00
2018-07-20T04:17:14.851Z,1700.00
2018-07-20T04:18:14.950Z,1736.00
2018-07-20T04:19:15.050Z,1772.00
2018-07-20T04:20:15.193Z,1800.00
2018-07-20T04:21:15.304Z,1832.00
2018-07-20T04:22:15.387Z,1868.00
2018-07-20T04:23:15.479Z,1900.00
2018-07-20T04:24:15.570Z,1936.00
2018-07-20T04:25:15.669Z,1964.00
2018-07-20T04:26:15.760Z,1996.00
2018-07-20T04:27:15.857Z,2016.00
2018-07-20T04:28:15.985Z,2040.00
2018-07-20T04:29:16.075Z,2064.00
2018-07-20T04:30:16.194Z,2092.00
2018-07-20T04:31:16.324Z,2112.00
2018-07-20T04:32:16.432Z,2132.00
2018-07-20T04:33:16.541Z,2152.00
2018-07-20T04:34:16.655Z,2192.00
2018-07-20T04:35:16.751Z,2248.00
2018-07-20T04:36:16.865Z,2308.00
2018-07-20T04:37:16.985Z,2356.00
2018-07-20T04:38:17.085Z,2392.00
2018-07-20T04:39:17.170Z,2416.00
2018-07-20T04:40:17.280Z,2444.00
2018-07-20T04:41:17.369Z,2468.00
2018-07-20T04:42:17.453Z,2500.00
2018-07-20T04:43:17.534Z,2528.00
2018-07-20T04:44:17.674Z,2548.00
2018-07-20T04:45:17.801Z,2560.00
2018-07-20T04:46:17.896Z,2568.00
2018-07-20T04:47:17.982Z,2580.00
2018-07-20T04:48:18.087Z,2608.00
2018-07-20T04:49:18.190Z,2640.00
2018-07-20T04:50:18.284Z,2680.00
2018-07-20T04:51:18.408Z,2724.00
2018-07-20T04:52:18.515Z,2768.00
2018-07-20T04:53:18.610Z,2804.00
2018-07-20T04:54:18.737Z,2836.00
2018-07-20T04:55:18.823Z,2868.00
2018-07-20T04:56:18.936Z,2900.00
2018-07-20T04:57:19.021Z,2932.00
2018-07-20T04:58:19.128Z,2968.00
2018-07-20T04:59:19.211Z,2996.00
2018-07-20T05:00:19.315Z,3040.00
2018-07-20T05:01:19.403Z,3068.00
2018-07-20T05:02:19.511Z,3092.00
2018-07-20T05:03:19.608Z,3112.00
2018-07-20T05:04:19.711Z,3132.00
2018-07-20T05:05:19.815Z,3160.00
2018-07-20T05:06:19.933Z,3196.00
2018-07-20T05:07:19.967Z,3228.00
2018-07-20T05:08:20.067Z,3264.00
2018-07-20T05:09:20.168Z,3312.00
2018-07-20T05:10:20.260Z,3376.00
2018-07-20T05:11:20.409Z,3432.00
2018-07-20T05:12:20.484Z,3516.00
2018-07-20T05:13:20.563Z,3556.00
2018-07-20T05:14:20.657Z,3620.00
2018-07-20T05:15:20.771Z,3676.00
2018-07-20T05:16:20.862Z,3740.00
2018-07-20T05:17:20.965Z,3808.00
2018-07-20T05:18:21.070Z,3872.00
2018-07-20T05:19:21.202Z,3920.00
2018-07-20T05:20:21.301Z,3948.00
2018-07-20T05:21:21.413Z,3968.00
2018-07-20T05:22:21.507Z,4004.00
2018-07-20T05:23:21.605Z,4060.00
2018-07-20T05:24:21.699Z,4104.00
2018-07-20T05:25:21.799Z,4164.00
2018-07-20T05:26:21.893Z,4220.00
2018-07-20T05:27:22.004Z,4272.00
2018-07-20T05:28:22.090Z,4352.00
2018-07-20T05:29:22.175Z,4440.00
2018-07-20T05:30:22.264Z,4540.00
2018-07-20T05:31:22.390Z,4644.00
2018-07-20T05:32:22.481Z,4968.00
2018-07-20T05:33:22.650Z,6872.00
2018-07-20T05:34:22.618Z,12608.00
2018-07-20T05:35:22.712Z,16768.00
2018-07-20T05:36:22.816Z,14912.00
2018-07-20T05:37:22.915Z,18496.00
2018-07-20T05:38:23.015Z,23616.00
2018-07-20T05:39:23.113Z,27360.00
2018-07-20T05:40:23.218Z,27648.00
2018-07-20T05:41:23.325Z,25504.00
2018-07-20T05:42:23.421Z,27840.00
2018-07-20T05:43:23.528Z,29792.00
2018-07-20T05:44:23.618Z,28672.00
2018-07-20T05:45:23.721Z,29024.00
2018-07-20T05:46:23.825Z,29568.00
2018-07-20T05:47:23.921Z,29472.00
2018-07-20T05:48:24.021Z,29056.00
2018-07-20T05:49:24.123Z,28928.00
2018-07-20T05:50:24.228Z,30016.00
2018-07-20T05:51:24.334Z,30240.00
2018-07-20T05:52:24.438Z,30848.00
2018-07-20T05:53:24.581Z,30624.00
2018-07-20T05:54:24.644Z,30016.00
2018-07-20T05:55:24.751Z,30112.00
2018-07-20T05:56:24.858Z,30752.00
2018-07-20T05:57:24.962Z,30592.00
2018-07-20T05:58:25.066Z,29536.00
2018-07-20T05:59:25.171Z,27584.00
2018-07-20T06:00:25.276Z,26848.00
2018-07-20T06:01:25.380Z,26688.00
2018-07-20T06:02:25.485Z,27680.00
2018-07-20T06:03:25.592Z,27232.00
2018-07-20T06:04:25.699Z,27616.00
2018-07-20T06:05:25.842Z,26560.00
2018-07-20T06:06:25.913Z,26752.00
2018-07-20T06:07:26.016Z,28736.00
2018-07-20T06:08:26.125Z,30176.00
2018-07-20T06:09:26.231Z,30912.00
2018-07-20T06:10:26.339Z,29824.00
2018-07-20T06:11:26.445Z,26752.00
2018-07-20T06:12:26.550Z,25984.00
2018-07-20T06:13:26.655Z,26336.00
2018-07-20T06:14:26.761Z,28352.00
2018-07-20T06:15:26.866Z,31328.00
2018-07-20T06:16:26.970Z,32544.00
2018-07-20T06:17:27.076Z,32352.00
2018-07-20T06:18:27.185Z,30688.00
2018-07-20T06:19:27.295Z,29664.00
2018-07-20T06:20:27.404Z,29088.00
2018-07-20T06:21:27.533Z,28672.00
2018-07-20T06:22:27.620Z,20512.00
2018-07-20T06:23:27.732Z,8920.00
2018-07-20T06:24:27.840Z,6972.00
2018-07-20T06:25:27.948Z,6800.00
2018-07-20T06:26:28.057Z,6716.00
2018-07-20T06:27:28.166Z,6488.00
2018-07-20T06:28:28.276Z,6616.00
2018-07-20T06:29:28.387Z,6652.00
2018-07-20T06:30:28.509Z,6644.00
2018-07-20T06:31:28.613Z,6672.00
2018-07-20T06:32:28.722Z,6708.00
2018-07-20T06:33:28.827Z,6708.00
2018-07-20T06:34:28.936Z,6696.00
2018-07-20T06:35:29.045Z,6740.00
2018-07-20T06:36:29.147Z,6592.00
2018-07-20T06:37:29.257Z,6492.00
2018-07-20T06:38:29.363Z,6636.00
2018-07-20T06:39:29.477Z,6640.00
2018-07-20T06:40:29.581Z,6608.00
2018-07-20T06:41:29.693Z,6588.00
2018-07-20T06:42:29.798Z,6588.00
2018-07-20T06:43:29.907Z,6584.00
2018-07-20T06:44:30.011Z,6476.00
2018-07-20T06:45:30.121Z,6532.00
2018-07-20T06:46:30.219Z,6524.00
2018-07-20T06:47:30.330Z,6492.00
2018-07-20T06:48:30.440Z,6572.00
2018-07-20T06:49:30.543Z,6584.00
2018-07-20T06:50:30.649Z,6652.00
2018-07-20T06:51:30.756Z,6628.00
2018-07-20T06:52:30.865Z,6680.00
2018-07-20T06:53:30.977Z,6692.00
2018-07-20T06:54:31.082Z,6740.00
2018-07-20T06:55:31.189Z,6720.00
2018-07-20T06:56:31.300Z,6764.00
2018-07-20T06:57:31.407Z,6744.00
2018-07-20T06:58:31.513Z,6924.00
2018-07-20T06:59:31.620Z,6812.00
2018-07-20T07:00:31.728Z,6892.00
2018-07-20T07:01:31.838Z,6876.00
2018-07-20T07:02:31.942Z,6716.00
2018-07-20T07:03:32.038Z,6724.00
2018-07-20T07:04:32.144Z,6680.00
2018-07-20T07:05:32.244Z,6580.00
2018-07-20T07:06:32.351Z,6592.00
2018-07-20T07:07:32.462Z,6632.00
2018-07-20T07:08:32.563Z,6696.00
2018-07-20T07:09:32.673Z,6624.00
2018-07-20T07:10:32.772Z,6952.00
2018-07-20T07:11:32.878Z,6672.00
2018-07-20T07:12:32.984Z,6628.00
2018-07-20T07:13:33.092Z,6652.00
2018-07-20T07:14:33.198Z,6680.00
2018-07-20T07:15:33.293Z,6684.00
2018-07-20T07:16:33.417Z,6640.00
2018-07-20T07:17:33.520Z,6640.00
2018-07-20T07:18:33.628Z,6592.00
2018-07-20T07:19:33.734Z,6528.00
2018-07-20T07:20:33.838Z,6532.00
2018-07-20T07:21:33.944Z,6524.00
2018-07-20T07:22:34.065Z,6568.00
2018-07-20T07:23:34.180Z,6620.00
2018-07-20T07:24:34.278Z,6612.00
2018-07-20T07:25:34.384Z,6728.00
2018-07-20T07:26:34.493Z,6744.00
2018-07-20T07:27:34.600Z,6804.00
2018-07-20T07:28:34.709Z,6808.00
2018-07-20T07:29:34.816Z,6888.00
2018-07-20T07:30:34.913Z,6952.00
2018-07-20T07:31:35.016Z,6900.00
2018-07-20T07:32:35.117Z,6836.00
2018-07-20T07:33:35.223Z,6716.00
2018-07-20T07:34:35.326Z,6764.00
2018-07-20T07:35:35.429Z,6788.00
2018-07-20T07:36:35.528Z,6900.00
2018-07-20T07:37:35.630Z,6696.00
2018-07-20T07:38:35.733Z,6688.00
2018-07-20T07:39:35.836Z,6604.00
2018-07-20T07:40:35.942Z,6784.00
2018-07-20T07:41:36.049Z,6888.00
2018-07-20T07:42:36.150Z,6812.00
2018-07-20T07:43:36.255Z,6904.00
2018-07-20T07:44:36.363Z,6824.00
2018-07-20T07:45:36.466Z,6916.00
2018-07-20T07:46:36.571Z,7028.00
2018-07-20T07:47:36.678Z,7044.00
2018-07-20T07:48:36.779Z,7072.00
2018-07-20T07:49:36.912Z,7092.00
2018-07-20T07:50:37.022Z,7080.00
2018-07-20T07:51:37.126Z,7108.00
2018-07-20T07:52:37.233Z,7096.00
2018-07-20T07:53:37.339Z,7032.00
2018-07-20T07:54:37.445Z,7132.00
2018-07-20T07:55:37.605Z,7204.00
2018-07-20T07:56:37.709Z,7280.00
2018-07-20T07:57:37.815Z,7096.00
2018-07-20T07:58:37.921Z,7212.00
2018-07-20T07:59:38.030Z,7212.00
2018-07-20T08:00:38.136Z,7168.00
2018-07-20T08:01:38.243Z,7256.00
2018-07-20T08:02:38.351Z,7208.00
2018-07-20T08:03:38.442Z,7116.00
2018-07-20T08:04:38.558Z,6916.00
2018-07-20T08:05:38.645Z,7072.00
2018-07-20T08:06:38.754Z,7188.00
2018-07-20T08:07:38.859Z,7276.00
2018-07-20T08:08:38.965Z,7276.00
2018-07-20T08:09:39.116Z,7304.00
2018-07-20T08:10:39.175Z,7364.00
2018-07-20T08:11:39.280Z,7328.00
2018-07-20T08:12:39.380Z,7208.00
2018-07-20T08:13:39.483Z,7156.00
2018-07-20T08:14:39.590Z,7300.00
2018-07-20T08:15:39.745Z,7440.00
2018-07-20T08:16:39.807Z,7316.00
2018-07-20T08:17:39.913Z,7332.00
2018-07-20T08:18:40.018Z,7200.00
2018-07-20T08:19:40.144Z,7100.00
2018-07-20T08:20:40.250Z,7052.00
2018-07-20T08:21:40.363Z,7024.00
2018-07-20T08:22:40.467Z,7080.00
2018-07-20T08:23:40.575Z,7076.00
2018-07-20T08:24:40.654Z,7004.00
2018-07-20T08:25:41.593Z,6956.00
2018-07-20T08:26:40.882Z,7064.00
2018-07-20T08:27:40.988Z,7000.00
2018-07-20T08:28:41.102Z,6896.00
2018-07-20T08:29:41.235Z,6772.00
2018-07-20T08:30:41.365Z,6644.00
2018-07-20T08:31:41.469Z,6588.00
2018-07-20T08:32:41.593Z,6616.00
2018-07-20T08:33:41.632Z,6676.00
2018-07-20T08:34:41.722Z,6568.00
2018-07-20T08:35:41.868Z,6704.00
2018-07-20T08:36:41.918Z,6620.00
2018-07-20T08:37:42.023Z,6576.00
2018-07-20T08:38:42.119Z,6584.00
2018-07-20T08:39:42.222Z,6516.00
2018-07-20T08:40:42.344Z,6420.00
2018-07-20T08:41:42.477Z,6460.00
2018-07-20T08:42:43.036Z,6364.00
2018-07-20T08:43:42.657Z,6288.00
2018-07-20T08:44:42.759Z,6344.00
2018-07-20T08:45:42.869Z,6352.00
2018-07-20T08:46:42.980Z,6396.00
2018-07-20T08:47:43.103Z,6528.00
2018-07-20T08:48:43.212Z,6540.00
2018-07-20T08:49:43.320Z,6540.00
2018-07-20T08:50:43.428Z,6728.00
2018-07-20T08:51:43.568Z,6716.00
2018-07-20T08:52:43.679Z,6688.00
2018-07-20T08:53:43.774Z,6648.00
2018-07-20T08:54:43.910Z,6640.00
2018-07-20T08:55:44.012Z,6672.00
2018-07-20T08:56:44.123Z,6748.00
2018-07-20T08:57:44.260Z,6828.00
2018-07-20T08:58:44.367Z,6712.00
2018-07-20T08:59:44.586Z,6760.00
2018-07-20T09:00:44.527Z,6652.00
2018-07-20T09:01:44.629Z,6716.00
2018-07-20T09:02:44.751Z,6820.00
2018-07-20T09:03:44.847Z,6812.00
2018-07-20T09:04:44.950Z,6776.00
2018-07-20T09:05:45.062Z,6500.00
2018-07-20T09:06:45.313Z,6636.00
2018-07-20T09:07:45.215Z,6744.00
2018-07-20T09:08:45.446Z,6812.00
2018-07-20T09:09:45.419Z,6800.00
2018-07-20T09:10:45.572Z,6792.00
2018-07-20T09:11:45.665Z,6800.00
2018-07-20T09:12:45.828Z,6760.00
2018-07-20T09:13:46.021Z,6844.00
2018-07-20T09:14:46.015Z,6740.00
2018-07-20T09:15:46.121Z,6632.00
2018-07-20T09:16:46.223Z,6624.00
2018-07-20T09:17:46.352Z,6596.00
2018-07-20T09:18:46.464Z,6568.00
2018-07-20T09:19:46.595Z,6716.00
2018-07-20T09:20:46.741Z,6468.00
2018-07-20T09:21:46.796Z,6484.00
2018-07-20T09:22:46.890Z,6588.00
2018-07-20T09:23:47.278Z,6576.00
2018-07-20T09:24:47.206Z,6408.00
2018-07-20T09:25:47.179Z,6400.00
2018-07-20T09:26:47.274Z,5876.00
2018-07-20T09:27:47.403Z,6352.00
2018-07-20T09:28:47.512Z,6752.00
2018-07-20T09:29:47.606Z,6656.00
2018-07-20T09:30:47.709Z,6596.00
2018-07-20T09:31:47.814Z,6708.00
2018-07-20T09:32:47.938Z,6824.00
2018-07-20T09:33:48.052Z,6900.00
2018-07-20T09:34:48.165Z,7092.00
2018-07-20T09:35:48.284Z,7168.00
2018-07-20T09:36:48.388Z,7176.00
2018-07-20T09:37:48.502Z,7212.00
2018-07-20T09:38:48.607Z,7236.00
2018-07-20T09:39:48.714Z,8240.00
2018-07-20T09:40:48.826Z,7300.00
2018-07-20T09:41:48.924Z,7220.00
2018-07-20T09:42:49.040Z,7260.00
2018-07-20T09:43:49.140Z,7340.00
2018-07-20T09:44:49.251Z,7356.00
2018-07-20T09:45:49.407Z,7420.00
2018-07-20T09:46:49.500Z,7376.00
2018-07-20T09:47:49.606Z,7208.00
2018-07-20T09:48:49.714Z,7420.00
2018-07-20T09:49:49.804Z,7316.00
2018-07-20T09:50:49.916Z,7468.00
2018-07-20T09:51:50.017Z,7344.00
2018-07-20T09:52:50.120Z,7328.00
2018-07-20T09:53:50.221Z,7996.00
2018-07-20T09:54:50.348Z,7552.00
2018-07-20T09:55:50.458Z,7764.00
2018-07-20T09:56:50.600Z,7604.00
2018-07-20T09:57:50.738Z,7516.00
2018-07-20T09:58:50.885Z,7620.00
2018-07-20T09:59:51.046Z,7544.00
2018-07-20T10:00:51.088Z,7524.00
2018-07-20T10:01:51.253Z,7536.00
2018-07-20T10:02:51.358Z,7524.00
2018-07-20T10:03:51.462Z,7468.00
2018-07-20T10:04:51.605Z,7612.00
2018-07-20T10:05:51.654Z,7428.00
2018-07-20T10:06:51.789Z,7456.00
2018-07-20T10:07:51.912Z,7320.00
2018-07-20T10:08:52.018Z,7164.00
2018-07-20T10:09:52.152Z,7240.00
2018-07-20T10:10:52.266Z,7256.00
2018-07-20T10:11:52.361Z,7048.00
2018-07-20T10:12:52.508Z,7012.00
2018-07-20T10:13:52.604Z,7152.00
2018-07-20T10:14:52.733Z,7340.00
2018-07-20T10:15:52.845Z,7452.00
2018-07-20T10:16:52.951Z,8224.00
2018-07-20T10:17:53.110Z,7788.00
2018-07-20T10:18:53.212Z,7404.00
2018-07-20T10:19:53.318Z,7416.00
2018-07-20T10:20:53.489Z,7532.00
2018-07-20T10:21:53.595Z,7444.00
2018-07-20T10:22:53.699Z,7564.00
2018-07-20T10:23:53.813Z,7264.00
2018-07-20T10:24:53.929Z,6892.00
2018-07-20T10:25:54.032Z,7044.00
2018-07-20T10:26:54.139Z,7252.00
2018-07-20T10:27:54.257Z,7120.00
2018-07-20T10:28:54.367Z,7160.00
2018-07-20T10:29:54.502Z,7204.00
2018-07-20T10:30:54.593Z,7196.00
2018-07-20T10:31:54.705Z,7088.00
2018-07-20T10:32:54.826Z,7044.00
2018-07-20T10:33:54.919Z,6820.00
2018-07-20T10:34:55.060Z,6916.00
2018-07-20T10:35:55.182Z,6952.00
2018-07-20T10:36:55.295Z,7164.00
2018-07-20T10:37:55.392Z,7272.00
2018-07-20T10:38:55.502Z,7504.00
2018-07-20T10:39:55.609Z,7492.00
2018-07-20T10:40:55.716Z,7320.00
2018-07-20T10:41:55.833Z,7692.00
2018-07-20T10:42:55.947Z,7420.00
2018-07-20T10:43:56.059Z,7480.00
2018-07-20T10:44:56.168Z,7748.00
2018-07-20T10:45:56.276Z,8088.00
2018-07-20T10:46:56.433Z,8092.00
2018-07-20T10:47:56.526Z,7628.00
2018-07-20T10:48:56.637Z,7396.00
2018-07-20T10:49:56.754Z,7600.00
2018-07-20T10:50:56.865Z,7764.00
2018-07-20T10:51:56.978Z,7760.00
2018-07-20T10:52:57.085Z,7588.00
2018-07-20T10:53:57.218Z,7452.00
2018-07-20T10:54:57.323Z,7160.00
2018-07-20T10:55:57.442Z,6884.00
2018-07-20T10:56:57.548Z,6768.00
2018-07-20T10:57:57.655Z,6412.00
2018-07-20T10:58:57.769Z,6592.00
2018-07-20T10:59:57.892Z,6708.00
2018-07-20T11:00:57.984Z,6784.00
2018-07-20T11:01:58.092Z,6648.00
2018-07-20T11:02:58.202Z,6728.00
2018-07-20T11:03:58.308Z,6732.00
2018-07-20T11:04:58.419Z,8312.00
2018-07-20T11:05:58.546Z,6400.00
2018-07-20T11:06:58.624Z,6184.00
2018-07-20T11:07:58.762Z,6264.00
2018-07-20T11:08:58.843Z,6484.00
2018-07-20T11:09:58.950Z,6528.00
2018-07-20T11:10:59.063Z,6512.00
2018-07-20T11:11:59.173Z,6356.00
2018-07-20T11:12:59.308Z,6292.00
2018-07-20T11:13:59.387Z,6400.00
2018-07-20T11:14:59.495Z,6544.00
2018-07-20T11:15:59.604Z,6464.00
2018-07-20T11:16:59.710Z,6508.00
2018-07-20T11:17:59.819Z,6924.00
2018-07-20T11:18:59.929Z,7092.00
2018-07-20T11:20:00.044Z,7300.00
2018-07-20T11:21:00.153Z,7252.00
2018-07-20T11:22:00.256Z,7268.00
2018-07-20T11:23:00.364Z,7364.00
2018-07-20T11:24:00.471Z,7172.00
2018-07-20T11:25:00.580Z,7192.00
2018-07-20T11:26:00.686Z,7408.00
2018-07-20T11:27:00.798Z,7504.00
2018-07-20T11:28:00.918Z,7624.00
2018-07-20T11:29:01.111Z,7700.00
2018-07-20T11:30:01.094Z,7768.00
2018-07-20T11:31:01.206Z,7824.00
2018-07-20T11:32:01.313Z,7920.00
2018-07-20T11:33:01.435Z,8036.00
2018-07-20T11:34:01.547Z,8052.00
2018-07-20T11:35:01.666Z,8132.00
2018-07-20T11:36:01.768Z,8188.00
2018-07-20T11:37:01.879Z,8364.00
2018-07-20T11:38:01.993Z,8380.00
2018-07-20T11:39:02.136Z,8444.00
2018-07-20T11:40:02.236Z,8456.00
2018-07-20T11:41:02.351Z,8624.00
2018-07-20T11:42:02.464Z,8980.00
2018-07-20T11:43:02.576Z,8836.00
2018-07-20T11:44:02.687Z,8800.00
2018-07-20T11:45:02.802Z,8984.00
2018-07-20T11:46:02.908Z,8960.00
2018-07-20T11:47:03.021Z,8984.00
2018-07-20T11:48:03.130Z,8860.00
2018-07-20T11:49:03.240Z,8908.00
2018-07-20T11:50:03.351Z,8972.00
2018-07-20T11:51:03.465Z,9076.00
2018-07-20T11:52:03.575Z,8992.00
2018-07-20T11:53:03.688Z,9052.00
2018-07-20T11:56:35.899Z,9112.00
2018-07-20T11:57:36.013Z,8920.00
2018-07-20T11:58:36.122Z,8628.00
2018-07-20T11:59:36.234Z,8448.00
2018-07-20T12:00:36.346Z,8420.00
2018-07-20T12:01:36.459Z,8244.00
2018-07-20T12:02:36.561Z,8240.00
2018-07-20T12:03:36.670Z,8280.00
2018-07-20T12:04:36.777Z,8368.00
2018-07-20T12:05:36.888Z,8448.00
2018-07-20T12:06:36.999Z,8320.00
2018-07-20T12:07:37.112Z,8464.00
2018-07-20T12:08:37.222Z,8504.00
2018-07-20T12:09:37.331Z,8396.00
2018-07-20T12:10:37.441Z,8340.00
2018-07-20T12:11:37.552Z,8240.00
2018-07-20T12:12:37.659Z,8068.00
2018-07-20T12:13:37.770Z,7936.00
2018-07-20T12:14:37.880Z,7776.00
2018-07-20T12:15:37.991Z,7612.00
2018-07-20T12:16:38.096Z,7400.00
2018-07-20T12:17:38.206Z,7976.00
2018-07-20T12:18:38.317Z,8072.00
2018-07-20T12:19:38.425Z,8612.00
2018-07-20T12:20:38.534Z,8368.00
2018-07-20T12:21:38.643Z,8196.00
2018-07-20T12:22:38.753Z,8048.00
2018-07-20T12:23:38.862Z,8232.00
2018-07-20T12:24:38.972Z,8392.00
2018-07-20T12:25:39.079Z,8292.00
2018-07-20T12:26:39.195Z,8412.00
2018-07-20T12:27:39.304Z,8556.00
2018-07-20T12:28:39.415Z,8516.00